Time;durP1;ratioP1;P1;durP2;ratioP2;P2;SDS_P1;SDS_P2;PMS_P1;PMS_P2;Temp;Humidity;BMP_temperature;BMP_pressure;BME280_temperature;BME280_humidity;BME280_pressure;Samples;Min_cycle;Max_cycle;Signal;HPM_P1;HPM_P2
2021/06/18 00:02:20;;;;;;;19.40;16.42;;;23.70;99.90;;;;;;4993399;28;20697;-85
2021/06/18 00:04:46;;;;;;;18.48;15.90;;;23.60;99.90;;;;;;4992904;28;20271;-84
2021/06/18 00:07:11;;;;;;;20.27;17.80;;;23.40;99.90;;;;;;4992874;28;20176;-92
2021/06/18 00:09:37;;;;;;;21.13;18.88;;;23.30;99.90;;;;;;4992716;28;20178;-83
2021/06/18 00:12:05;;;;;;;20.08;17.20;;;23.30;99.90;;;;;;4994665;28;20284;-84
2021/06/18 00:14:31;;;;;;;19.30;16.38;;;23.40;99.90;;;;;;4993456;28;20268;-90
2021/06/18 00:16:56;;;;;;;22.60;18.70;;;23.30;99.90;;;;;;4993300;28;20220;-92
2021/06/18 00:19:22;;;;;;;22.05;17.52;;;23.30;99.90;;;;;;4994061;28;20165;-93
2021/06/18 00:21:48;;;;;;;20.58;18.58;;;23.50;99.90;;;;;;4992692;28;20205;-88
2021/06/18 00:24:14;;;;;;;27.75;18.73;;;23.20;99.90;;;;;;4992916;28;20222;-84
2021/06/18 00:26:39;;;;;;;34.50;20.23;;;23.20;99.90;;;;;;4993962;28;20218;-84
2021/06/18 00:29:05;;;;;;;36.42;19.67;;;23.30;99.90;;;;;;4992583;28;20264;-86
2021/06/18 00:31:31;;;;;;;47.28;19.88;;;23.40;99.90;;;;;;4992567;28;20246;-84
2021/06/18 00:33:57;;;;;;;25.80;17.02;;;23.20;99.90;;;;;;4992586;28;20611;-83
2021/06/18 00:36:23;;;;;;;27.38;17.65;;;23.40;99.90;;;;;;4992578;28;20259;-85
2021/06/18 00:38:48;;;;;;;28.02;17.13;;;23.40;99.90;;;;;;4993906;28;20162;-84
2021/06/18 00:41:14;;;;;;;22.60;17.40;;;23.40;99.90;;;;;;4993804;28;20197;-84
2021/06/18 00:43:39;;;;;;;19.95;17.70;;;23.50;99.90;;;;;;4992340;28;20188;-83
2021/06/18 00:46:05;;;;;;;19.10;16.90;;;23.70;99.90;;;;;;4992798;28;20253;-84
2021/06/18 00:48:32;;;;;;;21.52;15.85;;;23.70;99.90;;;;;;4992291;28;20173;-88
2021/06/18 00:50:59;;;;;;;19.90;17.08;;;23.80;99.90;;;;;;4993993;28;20649;-84
2021/06/18 00:53:25;;;;;;;21.92;17.33;;;23.90;99.90;;;;;;4992513;28;20177;-89
2021/06/18 00:55:51;;;;;;;18.38;16.45;;;23.80;99.90;;;;;;4994358;28;20513;-85
2021/06/18 00:58:17;;;;;;;17.30;15.57;;;23.50;99.90;;;;;;4992298;28;20215;-84
2021/06/18 01:00:44;;;;;;;19.88;16.88;;;23.40;99.90;;;;;;4993784;28;20193;-85
2021/06/18 01:03:10;;;;;;;25.70;15.73;;;23.70;99.90;;;;;;4991949;28;20181;-84
2021/06/18 01:05:36;;;;;;;17.15;15.38;;;23.80;99.90;;;;;;4992424;28;20257;-84
2021/06/18 01:08:11;;;;;;;21.00;16.40;;;23.80;99.90;;;;;;4992242;28;20184;-90
2021/06/18 01:10:52;;;;;;;22.52;17.75;;;23.60;99.90;;;;;;4991887;28;20194;-84
2021/06/18 01:13:31;;;;;;;22.30;19.10;;;23.70;99.90;;;;;;4992108;28;20634;-83
2021/06/18 01:16:31;;;;;;;23.75;20.23;;;23.80;99.90;;;;;;4993282;28;21010;-84
2021/06/18 01:19:14;;;;;;;21.10;18.90;;;23.80;99.90;;;;;;4992187;28;20606;-87
2021/06/18 01:21:43;;;;;;;20.77;18.73;;;23.60;99.90;;;;;;4992504;28;20197;-88
2021/06/18 01:24:30;;;;;;;25.17;17.65;;;23.20;99.90;;;;;;4992917;28;20169;-86
2021/06/18 01:27:27;;;;;;;21.48;19.23;;;23.00;99.90;;;;;;4992272;28;20185;-84
2021/06/18 01:30:19;;;;;;;33.47;21.55;;;23.00;99.90;;;;;;4992154;28;20518;-89
2021/06/18 01:33:02;;;;;;;31.38;23.88;;;23.00;99.90;;;;;;4992137;28;20312;-84
2021/06/18 01:35:46;;;;;;;37.03;24.05;;;22.90;99.90;;;;;;4992178;28;20267;-84
2021/06/18 01:38:13;;;;;;;32.08;25.33;;;22.70;99.90;;;;;;4992208;28;20211;-84
2021/06/18 01:40:41;;;;;;;31.40;24.67;;;22.60;99.90;;;;;;4993247;28;20189;-83
2021/06/18 01:43:09;;;;;;;32.80;26.05;;;22.50;99.90;;;;;;4991933;28;20177;-87
2021/06/18 01:45:36;;;;;;;33.55;25.80;;;22.40;99.90;;;;;;4992464;28;20165;-89
2021/06/18 01:48:04;;;;;;;34.60;25.95;;;22.30;99.90;;;;;;4992380;28;20228;-89
2021/06/18 01:50:32;;;;;;;36.75;28.48;;;22.30;99.90;;;;;;4992405;28;20197;-84
2021/06/18 01:53:03;;;;;;;50.53;31.80;;;22.40;99.90;;;;;;4993717;28;20245;-85
2021/06/18 01:55:30;;;;;;;53.83;34.55;;;22.30;99.90;;;;;;4992604;28;20243;-85
2021/06/18 01:57:59;;;;;;;47.75;31.83;;;22.00;99.90;;;;;;4992266;28;20193;-85
2021/06/18 02:00:26;;;;;;;40.83;31.58;;;21.60;99.90;;;;;;4992248;28;20181;-87
2021/06/18 02:02:53;;;;;;;39.58;29.27;;;21.50;99.90;;;;;;4992339;28;20205;-88
2021/06/18 02:05:20;;;;;;;37.25;28.75;;;21.60;99.90;;;;;;4993246;28;20174;-86
2021/06/18 02:07:49;;;;;;;41.13;28.08;;;21.40;99.90;;;;;;4993107;28;20173;-86
2021/06/18 02:10:16;;;;;;;35.72;27.35;;;21.30;99.90;;;;;;4991626;28;20165;-84
2021/06/18 02:12:42;;;;;;;38.40;27.52;;;21.20;99.90;;;;;;4991462;28;20207;-91
2021/06/18 02:15:09;;;;;;;44.22;26.65;;;21.10;99.90;;;;;;4991741;28;20201;-84
2021/06/18 02:17:38;;;;;;;37.30;26.25;;;20.90;99.90;;;;;;4995428;28;20205;-86
2021/06/18 02:20:08;;;;;;;42.00;26.95;;;20.80;99.90;;;;;;4995581;28;20169;-84
2021/06/18 02:22:35;;;;;;;40.35;26.08;;;21.00;99.90;;;;;;4995234;28;20185;-87
2021/06/18 02:25:04;;;;;;;38.17;26.05;;;21.10;99.90;;;;;;4995341;28;20273;-85
2021/06/18 02:27:31;;;;;;;34.20;25.13;;;21.10;99.90;;;;;;4994880;28;20208;-83
2021/06/18 02:29:57;;;;;;;36.35;25.58;;;20.90;99.90;;;;;;4994977;28;20173;-90
2021/06/18 02:32:25;;;;;;;35.97;25.25;;;20.80;99.90;;;;;;4995007;28;20254;-85
2021/06/18 02:34:50;;;;;;;34.95;24.35;;;20.70;99.90;;;;;;4995166;28;20540;-88
2021/06/18 02:37:16;;;;;;;32.08;24.17;;;20.90;99.90;;;;;;4995413;28;20212;-85
2021/06/18 02:39:43;;;;;;;38.13;25.38;;;20.90;99.90;;;;;;4995173;28;20177;-88
2021/06/18 02:42:10;;;;;;;30.33;22.20;;;20.90;99.90;;;;;;4995225;28;20551;-84
2021/06/18 02:44:38;;;;;;;27.20;21.52;;;20.90;99.90;;;;;;4994934;28;20235;-84
2021/06/18 02:47:06;;;;;;;24.20;19.77;;;21.00;99.90;;;;;;4995430;28;20259;-86
2021/06/18 02:49:43;;;;;;;19.50;17.13;;;21.10;99.90;;;;;;4995382;28;20169;-89
2021/06/18 02:52:11;;;;;;;18.52;16.52;;;21.10;99.90;;;;;;4995600;28;20216;-91
2021/06/18 02:54:58;;;;;;;17.00;15.20;;;21.10;99.90;;;;;;4995191;28;20166;-91
2021/06/18 02:57:30;;;;;;;14.82;13.43;;;21.20;99.90;;;;;;4995420;28;20209;-91
2021/06/18 03:00:07;;;;;;;14.60;13.30;;;21.20;99.90;;;;;;4995238;28;20165;-90
2021/06/18 03:02:43;;;;;;;13.88;12.68;;;21.10;99.90;;;;;;4994968;28;20192;-92
2021/06/18 03:05:10;;;;;;;11.48;10.48;;;21.00;99.90;;;;;;4995755;28;20609;-91
2021/06/18 03:07:37;;;;;;;10.40;9.57;;;21.00;99.90;;;;;;4994861;28;20174;-84
2021/06/18 03:10:09;;;;;;;15.13;11.80;;;21.00;99.90;;;;;;4995181;28;20625;-90
2021/06/18 03:12:39;;;;;;;11.02;10.13;;;21.00;99.90;;;;;;4995065;28;20181;-92
2021/06/18 03:15:08;;;;;;;11.48;10.57;;;21.00;99.90;;;;;;4994901;28;20626;-90
2021/06/18 03:17:36;;;;;;;10.35;9.57;;;21.00;99.90;;;;;;4994738;28;20230;-90
2021/06/18 03:20:08;;;;;;;11.13;9.93;;;20.90;99.90;;;;;;4995024;28;20166;-86
2021/06/18 03:22:36;;;;;;;14.88;10.20;;;20.90;99.90;;;;;;4994116;28;20185;-84
2021/06/18 03:25:10;;;;;;;12.15;11.07;;;20.90;99.90;;;;;;4994152;28;20193;-83
2021/06/18 03:27:39;;;;;;;11.10;10.13;;;20.90;99.90;;;;;;4993889;28;20208;-84
2021/06/18 03:30:07;;;;;;;14.20;11.82;;;21.00;99.90;;;;;;4995202;28;20180;-90
2021/06/18 03:32:37;;;;;;;13.55;12.30;;;20.80;99.90;;;;;;4993875;28;20208;-85
2021/06/18 03:35:04;;;;;;;15.18;13.65;;;20.70;99.90;;;;;;4994329;28;20177;-83
2021/06/18 03:37:33;;;;;;;15.48;14.02;;;20.80;99.90;;;;;;4994248;28;20265;-85
2021/06/18 03:40:00;;;;;;;16.92;14.55;;;20.90;99.90;;;;;;4993991;28;20215;-91
2021/06/18 03:42:26;;;;;;;19.30;14.95;;;21.00;99.90;;;;;;4994034;28;20280;-85
2021/06/18 03:44:53;;;;;;;18.10;16.40;;;20.90;99.90;;;;;;4993982;28;20773;-84
2021/06/18 03:47:21;;;;;;;23.52;20.17;;;21.00;99.90;;;;;;4995099;28;20165;-83
2021/06/18 03:49:47;;;;;;;21.23;17.77;;;21.00;99.90;;;;;;4994506;28;20192;-87
2021/06/18 03:52:13;;;;;;;18.83;16.92;;;21.00;99.90;;;;;;4994218;28;20197;-82
2021/06/18 03:54:39;;;;;;;22.90;19.27;;;21.00;99.90;;;;;;4993941;28;20651;-90
2021/06/18 03:57:08;;;;;;;25.10;19.30;;;21.00;99.90;;;;;;4994937;28;20205;-86
2021/06/18 03:59:40;;;;;;;23.80;21.00;;;21.00;99.90;;;;;;4993762;28;20689;-86
2021/06/18 04:02:06;;;;;;;27.70;21.10;;;21.00;99.90;;;;;;4993335;28;20247;-88
2021/06/18 04:04:33;;;;;;;29.45;22.92;;;20.90;99.90;;;;;;4993768;28;20181;-90
2021/06/18 04:07:00;;;;;;;31.00;22.13;;;20.90;99.90;;;;;;4994028;28;20184;-84
2021/06/18 04:09:26;;;;;;;31.77;24.13;;;21.00;99.90;;;;;;4993401;28;20181;-84
2021/06/18 04:11:52;;;;;;;31.05;23.23;;;20.90;99.90;;;;;;4993355;28;20644;-83
2021/06/18 04:14:18;;;;;;;27.60;24.23;;;20.90;99.90;;;;;;4993620;28;20188;-87
2021/06/18 04:16:44;;;;;;;39.40;25.63;;;20.80;99.90;;;;;;4993735;28;20663;-91
2021/06/18 04:19:12;;;;;;;29.67;25.30;;;21.00;99.90;;;;;;4993710;28;20173;-85
2021/06/18 04:21:45;;;;;;;32.08;26.55;;;20.90;99.90;;;;;;4993590;28;20205;-87
2021/06/18 04:24:13;;;;;;;31.40;24.45;;;21.00;99.90;;;;;;5000224;28;20173;-84
2021/06/18 04:26:39;;;;;;;38.42;25.25;;;21.00;99.90;;;;;;5002627;28;20176;-84
2021/06/18 04:29:05;;;;;;;36.67;25.23;;;20.90;99.90;;;;;;5003805;28;20175;-88
2021/06/18 04:31:30;;;;;;;36.78;27.70;;;21.00;99.90;;;;;;5002982;28;20217;-87
2021/06/18 04:33:56;;;;;;;37.30;25.58;;;21.10;99.90;;;;;;4999797;28;20197;-85
2021/06/18 04:36:24;;;;;;;30.58;26.40;;;21.30;99.90;;;;;;4998855;28;20222;-91
2021/06/18 04:38:50;;;;;;;31.73;25.45;;;21.30;99.90;;;;;;4998377;28;20161;-88
2021/06/18 04:41:17;;;;;;;31.52;24.98;;;21.30;99.90;;;;;;4997341;28;20657;-87
2021/06/18 04:43:42;;;;;;;29.80;25.20;;;21.30;99.90;;;;;;4993864;28;20260;-87
2021/06/18 04:46:08;;;;;;;36.00;26.55;;;21.20;99.90;;;;;;4993734;28;20256;-89
2021/06/18 04:48:35;;;;;;;28.45;25.42;;;21.20;99.90;;;;;;4994585;28;20169;-89
2021/06/18 04:51:00;;;;;;;37.75;26.83;;;21.20;99.90;;;;;;4993488;28;20193;-85
2021/06/18 04:53:26;;;;;;;35.55;28.02;;;21.30;99.90;;;;;;4993210;28;20180;-89
2021/06/18 04:55:52;;;;;;;27.60;24.48;;;21.20;99.90;;;;;;4993328;28;20161;-85
2021/06/18 04:58:19;;;;;;;35.35;25.60;;;21.20;99.90;;;;;;4993434;28;20295;-84
2021/06/18 05:00:44;;;;;;;34.22;27.23;;;21.30;99.90;;;;;;4994683;28;20236;-91
2021/06/18 05:03:10;;;;;;;34.65;25.75;;;21.30;99.90;;;;;;4993595;28;20181;-84
2021/06/18 05:05:36;;;;;;;34.45;27.42;;;21.30;99.90;;;;;;4993255;28;20200;-85
2021/06/18 05:08:01;;;;;;;36.03;27.10;;;21.10;99.90;;;;;;4994044;28;20736;-86
2021/06/18 05:10:28;;;;;;;31.90;25.38;;;21.00;99.90;;;;;;4994055;28;20255;-86
2021/06/18 05:12:53;;;;;;;33.70;25.38;;;20.90;99.90;;;;;;4992509;28;20165;-84
2021/06/18 05:15:20;;;;;;;33.22;25.75;;;21.00;99.90;;;;;;4992351;28;20265;-82
2021/06/18 05:17:46;;;;;;;34.60;26.00;;;21.10;99.90;;;;;;4991938;28;20300;-85
2021/06/18 05:20:13;;;;;;;28.50;24.42;;;21.10;99.90;;;;;;4991954;28;20260;-84
2021/06/18 05:22:39;;;;;;;26.77;22.73;;;21.20;99.90;;;;;;4991989;28;20216;-84
2021/06/18 05:25:05;;;;;;;27.85;22.60;;;21.20;99.90;;;;;;4992259;28;20577;-84
2021/06/18 05:27:31;;;;;;;29.33;23.77;;;21.30;99.90;;;;;;4992018;28;20177;-83
2021/06/18 05:29:57;;;;;;;26.17;22.10;;;21.20;99.90;;;;;;4993542;28;20170;-84
2021/06/18 05:32:22;;;;;;;28.80;21.08;;;21.30;99.90;;;;;;4992018;28;20181;-86
2021/06/18 05:34:48;;;;;;;23.92;20.63;;;21.30;99.90;;;;;;4992955;28;20188;-84
2021/06/18 05:37:14;;;;;;;22.30;20.08;;;21.30;99.90;;;;;;4992322;28;20201;-86
2021/06/18 05:39:42;;;;;;;21.70;19.60;;;21.30;99.90;;;;;;4992813;28;20173;-85
2021/06/18 05:42:08;;;;;;;23.60;19.83;;;21.30;99.90;;;;;;4992316;28;20276;-88
2021/06/18 05:44:34;;;;;;;20.65;18.45;;;21.20;99.90;;;;;;4992881;28;20649;-85
2021/06/18 05:46:59;;;;;;;27.65;19.02;;;21.30;99.90;;;;;;4993393;28;20209;-85
2021/06/18 05:49:25;;;;;;;22.83;19.00;;;21.30;99.90;;;;;;4994157;28;20173;-86
2021/06/18 05:51:51;;;;;;;19.75;17.85;;;21.30;99.90;;;;;;4998581;28;20240;-93
2021/06/18 05:54:16;;;;;;;19.52;17.50;;;21.40;99.90;;;;;;4997175;28;20166;-93
2021/06/18 05:56:42;;;;;;;27.15;17.45;;;21.50;99.90;;;;;;4999820;28;20180;-84
2021/06/18 05:59:08;;;;;;;21.58;17.92;;;21.50;99.90;;;;;;5000595;28;20208;-85
2021/06/18 06:01:33;;;;;;;19.27;17.45;;;21.40;99.90;;;;;;5002897;28;20193;-87
2021/06/18 06:04:00;;;;;;;17.33;15.63;;;21.30;99.90;;;;;;4999823;28;20232;-86
2021/06/18 06:06:26;;;;;;;18.98;16.95;;;21.20;99.90;;;;;;4998073;28;20173;-83
2021/06/18 06:08:52;;;;;;;17.63;15.82;;;21.20;99.90;;;;;;4996732;28;20168;-86
2021/06/18 06:11:18;;;;;;;17.42;15.75;;;21.20;99.90;;;;;;4996140;28;20193;-83
2021/06/18 06:13:45;;;;;;;18.48;16.65;;;21.30;99.90;;;;;;4995536;28;20641;-83
2021/06/18 06:16:10;;;;;;;16.67;15.13;;;21.30;99.90;;;;;;4996626;28;20173;-86
2021/06/18 06:18:37;;;;;;;17.65;15.93;;;21.40;99.90;;;;;;4995038;28;20208;-83
2021/06/18 06:21:03;;;;;;;16.58;14.93;;;21.60;99.90;;;;;;4995684;28;20288;-84
2021/06/18 06:23:29;;;;;;;29.35;14.75;;;21.70;99.90;;;;;;4994938;28;20200;-83
2021/06/18 06:25:55;;;;;;;19.00;15.80;;;21.80;99.90;;;;;;4994728;28;20177;-83
2021/06/18 06:28:21;;;;;;;19.60;16.67;;;21.90;99.90;;;;;;4994778;28;20259;-82
2021/06/18 06:30:46;;;;;;;19.58;15.30;;;21.90;99.90;;;;;;4996831;28;20271;-92
2021/06/18 06:33:13;;;;;;;18.60;15.90;;;21.80;99.90;;;;;;4995694;28;20176;-86
2021/06/18 06:35:39;;;;;;;21.75;14.75;;;22.10;99.90;;;;;;4997655;28;20165;-84
2021/06/18 06:38:05;;;;;;;19.17;15.23;;;22.30;99.90;;;;;;4995638;28;20248;-85
2021/06/18 06:40:30;;;;;;;15.57;13.95;;;22.40;99.90;;;;;;4995893;28;20221;-85
2021/06/18 06:42:57;;;;;;;18.58;13.93;;;22.30;99.90;;;;;;4995998;28;20173;-89
2021/06/18 06:45:23;;;;;;;15.25;13.65;;;22.50;99.90;;;;;;4997124;28;20187;-83
2021/06/18 06:47:51;;;;;;;21.25;13.48;;;22.60;99.90;;;;;;4994295;28;20263;-88
2021/06/18 06:50:17;;;;;;;13.23;12.15;;;22.80;99.90;;;;;;4995392;28;20694;-83
2021/06/18 06:52:43;;;;;;;22.08;12.02;;;23.10;99.90;;;;;;4995733;28;20598;-90
2021/06/18 06:55:09;;;;;;;17.75;13.23;;;23.30;99.90;;;;;;4993752;28;20228;-82
2021/06/18 06:57:35;;;;;;;21.63;11.32;;;23.40;99.90;;;;;;4993741;28;20236;-84
2021/06/18 07:00:01;;;;;;;14.00;11.45;;;23.90;99.90;;;;;;4994360;28;20668;-82
2021/06/18 07:02:26;;;;;;;21.25;10.35;;;24.40;99.90;;;;;;4992828;28;20217;-85
2021/06/18 07:04:52;;;;;;;15.27;9.63;;;24.60;99.90;;;;;;4993762;28;20177;-83
2021/06/18 07:07:17;;;;;;;11.80;9.82;;;24.60;99.90;;;;;;4993421;28;20226;-89
2021/06/18 07:09:43;;;;;;;15.73;9.82;;;24.60;99.90;;;;;;4993591;28;20180;-81
2021/06/18 07:12:09;;;;;;;14.93;8.63;;;24.40;99.90;;;;;;4994314;28;20259;-81
2021/06/18 07:14:42;;;;;;;17.23;8.70;;;24.60;99.90;;;;;;4993889;28;20760;-87
2021/06/18 07:17:08;;;;;;;8.43;7.57;;;24.80;99.90;;;;;;4993677;28;20197;-85
2021/06/18 07:19:35;;;;;;;9.68;8.80;;;24.70;99.90;;;;;;4995559;28;20749;-83
2021/06/18 07:22:02;;;;;;;10.23;8.45;;;24.70;99.90;;;;;;4995431;28;20205;-81
2021/06/18 07:24:28;;;;;;;8.52;7.70;;;24.50;99.90;;;;;;4993519;28;20537;-84
2021/06/18 07:26:53;;;;;;;7.45;6.70;;;24.90;99.90;;;;;;4993825;28;20169;-84
2021/06/18 07:29:19;;;;;;;21.73;7.50;;;25.40;99.90;;;;;;4993890;28;20258;-87
2021/06/18 07:31:45;;;;;;;7.88;6.68;;;26.30;99.90;;;;;;4994758;28;20196;-81
2021/06/18 07:34:11;;;;;;;9.48;6.25;;;26.40;99.90;;;;;;4994976;28;20173;-84
2021/06/18 07:36:38;;;;;;;23.48;8.10;;;26.00;99.90;;;;;;4994677;28;20634;-90
2021/06/18 07:39:05;;;;;;;11.95;6.88;;;26.00;99.90;;;;;;4994457;28;20169;-80
2021/06/18 07:41:31;;;;;;;8.32;6.07;;;26.00;99.90;;;;;;4994758;28;20193;-81
2021/06/18 07:43:57;;;;;;;10.73;6.47;;;26.40;99.90;;;;;;4994998;28;20169;-85
2021/06/18 07:46:24;;;;;;;8.63;6.78;;;26.60;99.90;;;;;;4994970;28;20259;-80
2021/06/18 07:48:50;;;;;;;11.00;6.10;;;26.50;99.90;;;;;;4995004;28;20256;-80
2021/06/18 07:51:17;;;;;;;14.68;6.20;;;26.70;99.90;;;;;;4994770;28;20228;-78
2021/06/18 07:53:43;;;;;;;6.85;6.35;;;26.50;99.90;;;;;;4994929;28;20212;-81
2021/06/18 07:56:09;;;;;;;7.05;6.20;;;26.20;99.90;;;;;;4994497;28;20169;-90
2021/06/18 07:58:37;;;;;;;11.55;7.38;;;25.90;99.90;;;;;;4994582;28;20209;-80
2021/06/18 08:01:03;;;;;;;7.60;6.85;;;26.00;99.90;;;;;;4994183;28;20189;-80
2021/06/18 08:03:28;;;;;;;9.30;6.82;;;26.00;99.90;;;;;;4994663;28;20499;-79
2021/06/18 08:05:54;;;;;;;8.23;7.35;;;25.90;99.90;;;;;;4993384;28;20173;-79
2021/06/18 08:08:19;;;;;;;11.52;7.95;;;26.10;99.90;;;;;;4994451;28;20177;-83
2021/06/18 08:10:45;;;;;;;8.98;8.18;;;25.90;99.90;;;;;;4993925;28;20193;-88
2021/06/18 08:13:11;;;;;;;8.82;7.13;;;25.60;99.90;;;;;;4993421;28;20177;-89
2021/06/18 08:15:36;;;;;;;8.40;7.68;;;25.60;99.90;;;;;;4994475;28;20172;-84
2021/06/18 08:18:02;;;;;;;11.93;7.78;;;25.90;99.90;;;;;;4993881;28;20212;-79
2021/06/18 08:20:28;;;;;;;16.13;7.55;;;26.00;99.90;;;;;;4993497;28;20259;-87
2021/06/18 08:22:54;;;;;;;9.57;7.82;;;25.70;99.90;;;;;;4994104;28;20181;-83
2021/06/18 08:25:20;;;;;;;15.85;7.25;;;25.70;99.90;;;;;;4994599;28;20185;-92
2021/06/18 08:27:46;;;;;;;9.10;7.57;;;26.20;99.90;;;;;;4992873;28;20216;-84
2021/06/18 08:30:12;;;;;;;29.17;8.25;;;26.30;99.90;;;;;;4993886;28;20169;-84
2021/06/18 08:32:38;;;;;;;16.95;8.48;;;26.50;99.90;;;;;;4994399;28;20169;-85
2021/06/18 08:35:04;;;;;;;14.60;9.32;;;26.40;99.90;;;;;;4992454;28;20580;-78
2021/06/18 08:37:30;;;;;;;18.15;8.95;;;26.40;99.90;;;;;;4993566;28;21094;-82
2021/06/18 08:39:56;;;;;;;9.27;8.43;;;26.50;99.90;;;;;;4993649;28;20201;-79
2021/06/18 08:42:22;;;;;;;10.95;8.35;;;26.50;99.90;;;;;;4993586;28;20255;-79
2021/06/18 08:44:48;;;;;;;9.05;8.35;;;26.80;99.90;;;;;;4993759;28;20248;-85
2021/06/18 08:47:14;;;;;;;16.63;9.13;;;26.80;99.90;;;;;;4992536;28;20245;-81
2021/06/18 08:49:40;;;;;;;9.13;8.25;;;26.70;99.90;;;;;;4993109;28;20638;-78
2021/06/18 08:52:07;;;;;;;18.92;8.43;;;26.60;99.90;;;;;;4991582;28;20193;-84
2021/06/18 08:54:42;;;;;;;10.40;7.43;;;26.70;99.90;;;;;;4991787;28;20633;-78
2021/06/18 08:57:14;;;;;;;13.45;6.90;;;27.20;99.90;;;;;;4993344;28;20295;-79
2021/06/18 08:59:41;;;;;;;10.93;6.72;;;27.40;99.90;;;;;;4992078;28;20180;-81
2021/06/18 09:02:07;;;;;;;12.55;8.30;;;27.70;99.90;;;;;;4993455;28;20215;-87
2021/06/18 09:04:32;;;;;;;21.50;7.45;;;27.60;99.90;;;;;;4993993;28;20165;-87
2021/06/18 09:07:00;;;;;;;14.07;6.05;;;27.70;99.90;;;;;;4995053;28;20264;-80
2021/06/18 09:09:31;;;;;;;9.63;6.43;;;27.90;99.90;;;;;;4996796;28;20243;-81
2021/06/18 09:12:03;;;;;;;32.25;6.90;;;27.90;99.90;;;;;;4995985;28;20216;-85
2021/06/18 09:14:32;;;;;;;13.35;6.25;;;28.00;99.90;;;;;;4997218;28;20176;-96
2021/06/18 09:17:26;;;;;;;12.65;5.70;;;28.30;99.90;;;;;;5001957;28;20208;-89
2021/06/18 09:20:03;;;;;;;15.30;5.93;;;28.40;99.90;;;;;;5002837;28;20184;-96
2021/06/18 09:22:43;;;;;;;15.25;5.32;;;28.40;99.90;;;;;;5003708;28;20224;-93
2021/06/18 09:25:11;;;;;;;15.25;6.30;;;28.50;99.90;;;;;;5001629;28;20175;-93
2021/06/18 09:27:42;;;;;;;8.85;4.38;;;28.50;99.90;;;;;;5009455;28;20184;-88
2021/06/18 09:30:20;;;;;;;11.20;5.22;;;28.90;99.90;;;;;;5000148;28;20177;-92
2021/06/18 09:32:59;;;;;;;14.23;5.63;;;29.00;99.90;;;;;;5001082;28;20173;-93
2021/06/18 09:35:26;;;;;;;7.68;5.18;;;29.00;99.90;;;;;;5000205;28;20517;-96
2021/06/18 09:37:57;;;;;;;5.78;4.55;;;29.10;99.90;;;;;;4998797;28;20208;-94
2021/06/18 09:40:24;;;;;;;4.72;3.85;;;29.40;99.90;;;;;;4998029;28;20172;-94
2021/06/18 09:42:59;;;;;;;4.72;3.35;;;29.70;99.90;;;;;;5001984;28;20310;-92
2021/06/18 09:45:29;;;;;;;9.30;3.45;;;29.70;99.90;;;;;;5002417;28;20303;-92
2021/06/18 09:48:12;;;;;;;6.35;3.75;;;29.80;99.90;;;;;;4998532;28;20715;-93
2021/06/18 09:50:40;;;;;;;4.45;3.80;;;29.80;99.90;;;;;;4998290;28;20182;-91
2021/06/18 09:53:26;;;;;;;6.00;3.88;;;29.90;99.90;;;;;;4996772;28;20169;-87
2021/06/18 09:56:08;;;;;;;6.03;3.05;;;30.00;99.90;;;;;;4996888;28;20279;-93
2021/06/18 09:58:42;;;;;;;7.40;3.95;;;30.10;99.90;;;;;;4998094;28;20248;-94
2021/06/18 10:01:15;;;;;;;6.90;3.72;;;30.20;99.90;;;;;;4996429;28;20184;-95
2021/06/18 10:04:05;;;;;;;8.88;4.38;;;30.30;99.90;;;;;;4996626;28;20261;-92
2021/06/18 10:06:35;;;;;;;7.35;4.68;;;30.50;99.90;;;;;;4998224;28;20206;-92
2021/06/18 10:09:04;;;;;;;9.38;3.60;;;30.50;99.90;;;;;;5000985;28;20177;-90
2021/06/18 10:11:31;;;;;;;4.93;4.30;;;30.50;99.90;;;;;;4995828;28;20188;-93
2021/06/18 10:13:57;;;;;;;10.38;4.07;;;30.30;99.90;;;;;;4995568;28;20195;-90
2021/06/18 10:16:26;;;;;;;11.50;3.20;;;30.40;99.90;;;;;;4996359;28;20514;-84
2021/06/18 10:18:52;;;;;;;4.18;2.85;;;30.40;99.90;;;;;;4996600;28;20207;-83
2021/06/18 10:21:20;;;;;;;3.53;2.97;;;30.60;99.90;;;;;;4996635;28;20191;-91
2021/06/18 10:23:49;;;;;;;7.25;3.53;;;30.80;99.90;;;;;;4996028;28;20266;-84
2021/06/18 10:26:15;;;;;;;5.15;2.92;;;30.90;99.90;;;;;;4997542;28;20290;-93
2021/06/18 10:28:52;;;;;;;5.40;3.55;;;30.90;99.90;;;;;;4995982;28;20185;-89
2021/06/18 10:31:31;;;;;;;3.65;2.97;;;31.00;99.90;;;;;;4996061;28;20536;-93
2021/06/18 10:34:16;;;;;;;13.18;3.95;;;31.00;99.90;;;;;;4997815;28;20164;-96
2021/06/18 10:36:43;;;;;;;6.22;3.10;;;31.20;99.90;;;;;;4998100;28;20157;-90
2021/06/18 10:39:12;;;;;;;5.75;3.22;;;31.40;99.90;;;;;;4995284;28;20165;-86
2021/06/18 10:41:59;;;;;;;60.95;7.65;;;31.30;99.90;;;;;;4994028;28;20667;-89
2021/06/18 10:44:37;;;;;;;3.67;2.83;;;31.30;99.90;;;;;;4995905;28;20173;-91
2021/06/18 10:47:07;;;;;;;9.00;3.40;;;31.00;99.90;;;;;;4996168;28;20230;-88
2021/06/18 10:49:40;;;;;;;14.88;4.65;;;30.70;99.90;;;;;;4994942;28;20176;-88
2021/06/18 10:52:17;;;;;;;5.95;2.67;;;31.00;99.90;;;;;;4996898;28;20188;-89
2021/06/18 10:55:00;;;;;;;6.80;3.47;;;31.30;99.90;;;;;;4996187;28;20164;-87
2021/06/18 10:57:27;;;;;;;12.80;3.28;;;31.40;99.90;;;;;;4995033;28;20287;-86
2021/06/18 10:59:54;;;;;;;7.95;3.40;;;31.40;99.90;;;;;;4995166;28;20169;-89
2021/06/18 11:02:22;;;;;;;10.25;3.25;;;31.30;99.90;;;;;;4994580;28;20259;-87
2021/06/18 11:04:51;;;;;;;3.75;3.20;;;31.40;99.90;;;;;;4995487;28;20256;-86
2021/06/18 11:07:30;;;;;;;4.78;3.05;;;31.60;99.90;;;;;;4996253;28;20179;-84
2021/06/18 11:10:01;;;;;;;11.90;3.50;;;31.60;99.90;;;;;;4994620;28;20176;-86
2021/06/18 11:12:27;;;;;;;3.22;2.80;;;31.20;99.90;;;;;;4994470;28;20539;-87
2021/06/18 11:14:55;;;;;;;9.80;3.10;;;31.20;99.90;;;;;;4994890;28;20179;-85
2021/06/18 11:17:45;;;;;;;6.53;2.88;;;31.30;99.90;;;;;;4994119;28;20256;-86
2021/06/18 11:20:35;;;;;;;3.28;2.97;;;31.40;99.90;;;;;;4994464;28;20173;-87
2021/06/18 11:23:09;;;;;;;3.53;3.03;;;31.30;99.90;;;;;;4992529;28;20192;-86
2021/06/18 11:25:41;;;;;;;5.22;2.97;;;31.20;99.90;;;;;;4994331;28;20227;-87
2021/06/18 11:28:22;;;;;;;2.65;2.45;;;31.20;99.90;;;;;;4994305;28;20177;-84
2021/06/18 11:30:51;;;;;;;15.95;4.05;;;31.20;99.90;;;;;;4994095;28;20282;-87
2021/06/18 11:33:41;;;;;;;45.78;7.40;;;31.20;99.90;;;;;;4994783;28;20177;-91
2021/06/18 11:36:13;;;;;;;10.30;2.90;;;31.20;99.90;;;;;;4995553;28;20165;-84
2021/06/18 11:38:39;;;;;;;9.60;2.53;;;31.30;99.90;;;;;;4993965;28;20217;-86
2021/06/18 11:41:09;;;;;;;2.83;2.58;;;31.20;99.90;;;;;;5010327;28;20180;-90
2021/06/18 11:43:36;;;;;;;2.60;2.40;;;31.30;99.90;;;;;;5016134;28;20187;-85
2021/06/18 11:46:03;;;;;;;8.35;2.80;;;31.20;99.90;;;;;;5015363;28;20192;-90
2021/06/18 11:48:29;;;;;;;20.90;4.07;;;31.20;99.90;;;;;;5015596;28;20264;-87
2021/06/18 11:50:55;;;;;;;8.27;3.17;;;31.30;99.90;;;;;;5014940;28;20263;-89
2021/06/18 11:53:21;;;;;;;3.38;3.03;;;31.40;99.90;;;;;;5011557;28;20180;-89
2021/06/18 11:55:58;;;;;;;8.90;3.08;;;31.60;99.90;;;;;;4994149;28;20239;-89
2021/06/18 11:58:38;;;;;;;17.20;3.70;;;31.90;99.90;;;;;;4993514;28;20208;-88
2021/06/18 12:01:15;;;;;;;6.80;3.15;;;32.30;99.90;;;;;;4994247;28;20184;-89
2021/06/18 12:03:46;;;;;;;5.35;2.65;;;32.00;99.90;;;;;;4993873;28;20227;-87
2021/06/18 12:06:20;;;;;;;4.65;2.75;;;32.10;99.90;;;;;;4994434;28;20175;-89
2021/06/18 12:09:07;;;;;;;7.10;2.90;;;32.30;99.90;;;;;;4993713;28;20206;-91
2021/06/18 12:11:56;;;;;;;6.45;2.78;;;32.40;99.90;;;;;;4992831;28;20227;-86
2021/06/18 12:14:21;;;;;;;8.63;2.92;;;32.20;99.90;;;;;;4993432;28;20180;-87
2021/06/18 12:16:49;;;;;;;5.10;2.60;;;32.50;99.90;;;;;;4995418;28;20714;-86
2021/06/18 12:19:25;;;;;;;5.82;2.22;;;32.60;99.90;;;;;;5003189;28;20180;-86
2021/06/18 12:22:07;;;;;;;10.57;2.55;;;32.80;99.90;;;;;;5002382;28;20200;-90
2021/06/18 12:24:43;;;;;;;2.72;2.50;;;32.90;99.90;;;;;;5012736;28;20631;-90
2021/06/18 12:27:12;;;;;;;7.63;2.80;;;33.00;99.90;;;;;;5011946;28;20179;-91
2021/06/18 12:29:44;;;;;;;6.82;3.20;;;33.00;99.90;;;;;;5012802;28;20172;-84
2021/06/18 12:32:13;;;;;;;5.00;2.85;;;32.80;99.90;;;;;;5012478;28;20192;-87
2021/06/18 12:34:48;;;;;;;9.13;2.92;;;32.50;99.90;;;;;;5012399;28;20168;-84
2021/06/18 12:37:14;;;;;;;10.38;2.70;;;32.50;99.90;;;;;;5012923;28;20199;-90
2021/06/18 12:39:48;;;;;;;4.55;2.97;;;32.60;99.90;;;;;;5012710;28;20227;-91
2021/06/18 12:42:22;;;;;;;7.80;2.92;;;32.80;99.90;;;;;;5012770;28;20536;-85
2021/06/18 12:45:20;;;;;;;8.95;3.53;;;32.70;99.90;;;;;;5014081;28;20192;-88